Time;durP1;ratioP1;P1;durP2;ratioP2;P2;SDS_P1;SDS_P2;PMS_P1;PMS_P2;Temp;Humidity;BMP_temperature;BMP_pressure;BME280_temperature;BME280_humidity;BME280_pressure;Samples;Min_cycle;Max_cycle;Signal;HPM_P1;HPM_P2
2023/10/20 00:00:30;;;;;;;4.43;3.20;;;18.50;63.30;;;;;;4936284;29;20083;-29
2023/10/20 00:02:57;;;;;;;4.30;3.00;;;18.60;80.80;;;;;;4935674;29;20055;-29
2023/10/20 00:05:24;;;;;;;4.80;3.30;;;;;;;;;;4935993;29;20052;-29
2023/10/20 00:07:53;;;;;;;4.35;3.30;;;18.90;81.10;;;;;;4935822;29;20051;-29
2023/10/20 00:10:21;;;;;;;3.83;2.85;;;18.40;61.60;;;;;;4935913;29;20062;-28
2023/10/20 00:12:48;;;;;;;4.60;3.22;;;;;;;;;;4935873;29;20048;-29
2023/10/20 00:15:17;;;;;;;4.03;3.10;;;;;;;;;;4935673;29;20059;-29
2023/10/20 00:17:43;;;;;;;3.63;2.80;;;18.90;81.20;;;;;;4935662;29;20083;-29
2023/10/20 00:20:10;;;;;;;3.90;3.00;;;18.40;65.00;;;;;;4935759;29;20115;-29
2023/10/20 00:22:38;;;;;;;3.72;3.15;;;;;;;;;;4935697;29;20059;-28
2023/10/20 00:25:05;;;;;;;4.10;3.20;;;18.30;66.10;;;;;;4935343;29;20501;-29
2023/10/20 00:27:33;;;;;;;4.72;3.55;;;18.30;80.60;;;;;;4935541;29;20075;-29
2023/10/20 00:30:00;;;;;;;3.72;3.17;;;19.00;82.10;;;;;;4935518;29;20056;-29
2023/10/20 00:32:27;;;;;;;4.25;3.35;;;;;;;;;;4935414;29;20075;-27
2023/10/20 00:34:54;;;;;;;3.83;2.95;;;18.40;80.90;;;;;;4935337;29;20134;-26
2023/10/20 00:37:21;;;;;;;5.00;3.22;;;;;;;;;;4934821;29;20060;-28
2023/10/20 00:39:48;;;;;;;5.40;3.50;;;19.60;71.10;;;;;;4935547;29;20051;-26
2023/10/20 00:42:15;;;;;;;5.13;3.65;;;18.30;81.20;;;;;;4935226;29;20051;-26
2023/10/20 00:44:43;;;;;;;4.60;3.55;;;18.40;81.20;;;;;;4943090;29;20106;-26
2023/10/20 00:47:10;;;;;;;5.03;3.42;;;19.40;81.90;;;;;;4953941;28;20082;-27
2023/10/20 00:49:37;;;;;;;4.28;3.40;;;18.20;66.00;;;;;;4954274;28;20051;-27
2023/10/20 00:52:04;;;;;;;3.95;3.30;;;18.20;80.80;;;;;;4954468;28;20047;-27
2023/10/20 00:54:32;;;;;;;4.47;3.50;;;;;;;;;;4953865;28;20078;-28
2023/10/20 00:56:58;;;;;;;4.65;3.45;;;19.00;81.60;;;;;;4954423;28;20114;-27
2023/10/20 00:59:26;;;;;;;4.95;3.42;;;;;;;;;;4954126;28;20183;-27
2023/10/20 01:01:55;;;;;;;5.00;3.63;;;18.40;61.70;;;;;;4954362;28;20047;-27
2023/10/20 01:04:22;;;;;;;5.72;3.72;;;;;;;;;;4953961;28;20412;-28
2023/10/20 01:06:49;;;;;;;5.03;3.70;;;18.00;81.10;;;;;;4954046;28;20050;-26
2023/10/20 01:09:24;;;;;;;5.70;3.83;;;;;;;;;;4953900;28;20136;-26
2023/10/20 01:11:51;;;;;;;5.25;3.97;;;;;;;;;;4954144;28;20137;-26
2023/10/20 01:14:18;;;;;;;4.93;3.80;;;;;;;;;;4952998;28;20556;-27
2023/10/20 01:16:45;;;;;;;4.55;3.60;;;18.00;81.00;;;;;;4953987;28;20079;-27
2023/10/20 01:19:13;;;;;;;5.10;3.88;;;18.20;81.20;;;;;;4953457;28;20082;-26
2023/10/20 01:21:40;;;;;;;5.15;4.07;;;;;;;;;;4954112;28;20059;-27
2023/10/20 01:24:09;;;;;;;5.25;3.88;;;17.60;80.60;;;;;;4953611;28;20493;-27
2023/10/20 01:26:36;;;;;;;5.18;3.83;;;18.40;77.50;;;;;;4953804;28;20074;-26
2023/10/20 01:29:05;;;;;;;5.65;4.00;;;17.70;80.60;;;;;;4953494;28;20102;-26
2023/10/20 01:31:32;;;;;;;5.60;4.00;;;;;;;;;;4953638;28;20073;-29
2023/10/20 01:33:59;;;;;;;5.55;3.95;;;;;;;;;;4953716;28;20062;-27
2023/10/20 01:36:26;;;;;;;4.70;3.67;;;;;;;;;;4948139;28;20472;-27
2023/10/20 01:38:53;;;;;;;6.00;3.70;;;19.40;81.90;;;;;;4934606;29;20055;-26
2023/10/20 01:41:21;;;;;;;6.18;4.13;;;18.40;61.70;;;;;;4934551;29;20114;-27
2023/10/20 01:43:48;;;;;;;5.28;4.00;;;;;;;;;;4934196;29;20079;-26
2023/10/20 01:46:15;;;;;;;5.32;4.00;;;18.10;80.90;;;;;;4934269;29;20052;-27
2023/10/20 01:48:42;;;;;;;6.15;4.15;;;18.00;80.80;;;;;;4934835;29;20087;-27
2023/10/20 01:51:09;;;;;;;5.25;3.78;;;;;;;;;;4934536;29;20056;-27
2023/10/20 01:53:36;;;;;;;5.13;3.65;;;18.00;81.00;;;;;;4934362;29;20084;-26
2023/10/20 01:56:03;;;;;;;5.10;3.85;;;;;;;;;;4934140;29;20056;-28
2023/10/20 01:58:31;;;;;;;5.10;3.90;;;18.70;81.30;;;;;;4934370;29;20111;-26
2023/10/20 02:00:58;;;;;;;6.18;4.10;;;;;;;;;;4934461;29;20082;-28
2023/10/20 02:03:25;;;;;;;5.00;3.75;;;18.60;72.80;;;;;;4934419;29;20051;-27
2023/10/20 02:05:52;;;;;;;4.88;3.70;;;18.60;81.50;;;;;;4934273;29;20051;-29
2023/10/20 02:08:19;;;;;;;5.38;3.83;;;;;;;;;;4934044;29;20052;-28
2023/10/20 02:10:46;;;;;;;5.43;3.60;;;18.20;81.00;;;;;;4934450;29;20108;-29
2023/10/20 02:13:13;;;;;;;4.32;3.60;;;;;;;;;;4933947;29;20126;-28
2023/10/20 02:15:47;;;;;;;5.45;4.00;;;17.70;81.10;;;;;;4934246;29;20056;-26
2023/10/20 02:18:14;;;;;;;4.65;3.63;;;;;;;;;;4934225;29;20047;-27
2023/10/20 02:20:41;;;;;;;5.40;4.05;;;18.50;81.20;;;;;;4934301;29;20044;-26
2023/10/20 02:23:08;;;;;;;4.47;3.53;;;;;;;;;;4933953;29;20047;-27
2023/10/20 02:25:35;;;;;;;5.13;4.03;;;17.80;81.30;;;;;;4935681;29;20055;-26
2023/10/20 02:28:02;;;;;;;4.57;3.67;;;;;;;;;;4937786;29;20048;-29
2023/10/20 02:30:31;;;;;;;5.10;3.90;;;17.10;80.60;;;;;;4937783;29;20058;-26
2023/10/20 02:33:00;;;;;;;4.70;3.55;;;19.20;81.60;;;;;;4937767;29;20062;-26
2023/10/20 02:35:27;;;;;;;4.95;3.30;;;18.90;81.40;;;;;;4937489;29;20051;-27
2023/10/20 02:37:53;;;;;;;4.53;3.35;;;18.60;81.30;;;;;;4937089;29;20103;-26
2023/10/20 02:40:20;;;;;;;5.47;4.15;;;17.90;64.80;;;;;;4936309;29;20052;-27
2023/10/20 02:42:47;;;;;;;4.82;3.65;;;18.20;81.00;;;;;;4937574;29;20079;-26
2023/10/20 02:45:14;;;;;;;5.03;3.67;;;18.90;81.70;;;;;;4949357;29;20051;-26
2023/10/20 02:47:41;;;;;;;4.65;3.45;;;19.00;78.10;;;;;;4956499;28;20059;-26
2023/10/20 02:50:10;;;;;;;4.75;3.40;;;18.40;81.40;;;;;;4940589;28;20106;-27
2023/10/20 02:52:37;;;;;;;4.60;3.60;;;;;;;;;;4937349;29;20055;-26
2023/10/20 02:55:04;;;;;;;4.55;3.40;;;18.20;81.30;;;;;;4930650;29;20557;-26
2023/10/20 02:57:31;;;;;;;4.40;3.08;;;19.20;81.40;;;;;;4918619;29;20048;-26
2023/10/20 02:59:58;;;;;;;5.38;3.85;;;18.50;80.90;;;;;;4918415;29;20081;-26
2023/10/20 03:02:26;;;;;;;5.38;3.38;;;;;;;;;;4918110;29;20052;-29
2023/10/20 03:04:54;;;;;;;4.22;3.00;;;19.70;62.30;;;;;;4918062;29;20151;-29
2023/10/20 03:07:24;;;;;;;4.20;3.20;;;18.40;81.30;;;;;;4925065;29;20656;-29
2023/10/20 03:09:51;;;;;;;4.10;3.35;;;18.30;63.60;;;;;;4937280;29;20059;-28
2023/10/20 03:12:18;;;;;;;4.13;3.10;;;18.80;81.50;;;;;;4936757;29;20540;-29
2023/10/20 03:14:45;;;;;;;4.18;3.25;;;18.60;61.60;;;;;;4936631;29;20576;-28
2023/10/20 03:17:12;;;;;;;4.00;3.10;;;18.40;80.80;;;;;;4937030;29;20462;-29
2023/10/20 03:19:40;;;;;;;4.10;3.30;;;18.60;81.50;;;;;;4936905;29;20075;-29
2023/10/20 03:22:08;;;;;;;6.05;3.15;;;18.40;80.60;;;;;;4936631;29;20058;-29
2023/10/20 03:24:36;;;;;;;4.25;3.10;;;19.10;81.20;;;;;;4936825;29;20051;-29
2023/10/20 03:27:03;;;;;;;4.07;3.00;;;19.60;81.00;;;;;;4936709;29;20087;-29
2023/10/20 03:29:30;;;;;;;4.22;3.08;;;19.00;70.40;;;;;;4936587;29;20058;-29
2023/10/20 03:31:56;;;;;;;3.75;3.22;;;19.90;81.50;;;;;;4936521;29;20111;-29
2023/10/20 03:34:23;;;;;;;3.67;2.80;;;19.20;81.30;;;;;;4936281;29;20091;-29
2023/10/20 03:36:51;;;;;;;3.88;2.85;;;18.50;72.30;;;;;;4935382;29;20143;-28
2023/10/20 03:39:20;;;;;;;4.13;3.10;;;18.40;66.10;;;;;;4936583;29;20058;-29
2023/10/20 03:41:49;;;;;;;3.67;3.00;;;19.30;75.90;;;;;;4936685;29;20056;-29
2023/10/20 03:44:15;;;;;;;4.63;3.10;;;18.80;80.60;;;;;;4940435;29;20055;-29
2023/10/20 03:46:48;;;;;;;4.35;3.38;;;19.30;69.60;;;;;;4955705;28;20141;-28
2023/10/20 03:49:15;;;;;;;3.83;2.88;;;17.70;78.00;;;;;;4955470;28;20062;-29
2023/10/20 03:51:48;;;;;;;3.33;2.47;;;18.90;72.20;;;;;;4955563;28;20047;-29
2023/10/20 03:54:15;;;;;;;4.15;3.10;;;19.40;63.40;;;;;;4955296;28;20047;-28
2023/10/20 03:56:42;;;;;;;4.43;2.97;;;18.90;80.50;;;;;;4955453;28;20130;-29
2023/10/20 03:59:10;;;;;;;3.63;2.85;;;19.00;61.20;;;;;;4955050;28;20055;-29
2023/10/20 04:01:38;;;;;;;3.58;2.80;;;20.20;75.60;;;;;;4955570;28;20115;-29
2023/10/20 04:04:08;;;;;;;4.15;2.60;;;18.70;77.40;;;;;;4955172;29;20079;-29
2023/10/20 04:06:36;;;;;;;3.58;2.85;;;;;;;;;;4955143;28;20138;-28
2023/10/20 04:09:08;;;;;;;3.92;2.95;;;;;;;;;;4955131;28;20058;-27
2023/10/20 04:11:35;;;;;;;3.47;2.60;;;18.60;73.50;;;;;;4954895;28;20133;-29
2023/10/20 04:14:02;;;;;;;3.35;2.78;;;19.20;80.80;;;;;;4954716;28;20051;-29
2023/10/20 04:16:31;;;;;;;3.72;2.63;;;18.90;69.70;;;;;;4955002;28;20047;-28
2023/10/20 04:18:59;;;;;;;3.90;3.00;;;19.40;77.50;;;;;;4954967;28;20055;-29
2023/10/20 04:21:26;;;;;;;3.40;2.60;;;18.70;76.00;;;;;;4955245;28;20416;-29
2023/10/20 04:23:54;;;;;;;3.63;2.60;;;19.10;81.10;;;;;;4954548;28;20074;-29
2023/10/20 04:26:21;;;;;;;3.13;2.67;;;;;;;;;;4954770;28;20047;-29
2023/10/20 04:29:02;;;;;;;3.30;2.60;;;20.20;75.30;;;;;;4954554;28;20055;-29
2023/10/20 04:42:55;;;;;;;3.40;2.58;;;;;;;;;;4935447;29;20051;-29
2023/10/20 04:48:35;;;;;;;3.33;2.67;;;19.10;61.00;;;;;;4953449;28;20129;-28
2023/10/20 04:51:09;;;;;;;3.45;2.50;;;18.90;80.10;;;;;;4954413;28;20051;-29
2023/10/20 04:53:54;;;;;;;3.17;2.38;;;;;;;;;;4953287;29;20069;-29
2023/10/20 04:56:37;;;;;;;2.83;2.30;;;19.20;80.20;;;;;;4954624;28;20398;-29
2023/10/20 04:59:09;;;;;;;3.58;2.83;;;18.50;80.10;;;;;;4954134;28;20047;-29
2023/10/20 05:01:43;;;;;;;3.40;2.65;;;;;;;;;;4954044;28;20078;-28
2023/10/20 05:04:16;;;;;;;3.37;2.53;;;19.10;60.90;;;;;;4953913;28;20512;-29
2023/10/20 05:06:44;;;;;;;3.08;2.35;;;;;;;;;;4954208;28;20381;-29
2023/10/20 05:09:13;;;;;;;5.43;2.35;;;19.50;62.00;;;;;;4953987;28;20054;-29
2023/10/20 05:11:40;;;;;;;3.03;2.20;;;18.80;79.90;;;;;;4954098;28;20079;-29
2023/10/20 05:14:07;;;;;;;2.90;2.30;;;18.10;74.40;;;;;;4953457;28;20563;-29
2023/10/20 05:16:34;;;;;;;3.75;2.40;;;18.20;79.50;;;;;;4953900;28;20493;-26
2023/10/20 05:19:03;;;;;;;3.47;2.38;;;;;;;;;;4954096;28;20077;-29
2023/10/20 05:21:33;;;;;;;2.80;2.20;;;19.10;60.90;;;;;;4954024;28;20055;-26
2023/10/20 05:24:03;;;;;;;3.17;2.20;;;19.10;80.40;;;;;;4953792;28;20069;-27
2023/10/20 05:26:30;;;;;;;2.58;2.10;;;19.00;80.00;;;;;;4953649;28;20055;-27
2023/10/20 05:28:57;;;;;;;3.20;2.20;;;;;;;;;;4945285;28;20539;-29
2023/10/20 05:31:25;;;;;;;3.10;2.50;;;18.80;80.10;;;;;;4934622;29;20055;-26
2023/10/20 05:33:52;;;;;;;2.85;2.35;;;18.80;73.50;;;;;;4934427;29;20056;-27
2023/10/20 05:36:19;;;;;;;3.03;2.40;;;;;;;;;;4934072;29;20079;-26
2023/10/20 05:38:47;;;;;;;3.13;2.30;;;18.40;73.60;;;;;;4934583;29;20051;-26
2023/10/20 05:41:14;;;;;;;3.25;2.33;;;18.30;75.80;;;;;;4934377;29;20421;-26
2023/10/20 05:43:42;;;;;;;3.05;2.08;;;18.90;80.00;;;;;;4934281;29;20075;-26
2023/10/20 05:46:14;;;;;;;2.63;2.13;;;19.00;79.80;;;;;;4915554;29;20059;-26
2023/10/20 05:48:40;;;;;;;3.22;2.38;;;18.70;80.60;;;;;;4915614;29;20058;-26
2023/10/20 05:51:07;;;;;;;2.58;2.10;;;18.00;79.40;;;;;;4915548;29;20104;-29
2023/10/20 05:53:34;;;;;;;3.17;2.30;;;;;;;;;;4915170;29;20052;-28
2023/10/20 05:56:02;;;;;;;2.22;1.90;;;19.10;64.60;;;;;;4915600;29;20084;-29
2023/10/20 05:58:32;;;;;;;2.50;1.90;;;;;;;;;;4915281;29;20076;-29
2023/10/20 06:01:09;;;;;;;2.83;1.92;;;19.60;80.50;;;;;;4917643;29;20107;-30
2023/10/20 06:03:35;;;;;;;2.63;2.00;;;19.10;80.90;;;;;;4919010;29;20139;-29
2023/10/20 06:06:03;;;;;;;3.28;2.03;;;;;;;;;;4919359;29;20083;-28
2023/10/20 06:08:30;;;;;;;2.53;2.05;;;19.00;79.90;;;;;;4931343;29;20073;-29
2023/10/20 06:11:02;;;;;;;2.80;2.10;;;19.20;60.90;;;;;;4938058;29;20458;-29
2023/10/20 06:13:30;;;;;;;2.40;2.00;;;;;;;;;;4937609;29;20505;-26
2023/10/20 06:15:57;;;;;;;2.80;1.98;;;19.20;63.30;;;;;;4937390;29;20086;-29
2023/10/20 06:18:24;;;;;;;3.40;2.33;;;18.90;80.10;;;;;;4937704;29;20075;-30
2023/10/20 06:20:50;;;;;;;3.10;2.15;;;19.30;80.40;;;;;;4937440;29;20048;-29
2023/10/20 06:23:18;;;;;;;2.90;2.10;;;19.10;71.00;;;;;;4937525;29;20048;-26
2023/10/20 06:25:46;;;;;;;2.10;1.70;;;19.30;71.70;;;;;;4937211;29;20071;-27
2023/10/20 06:28:14;;;;;;;2.47;1.90;;;19.20;60.90;;;;;;4940626;29;20047;-29
2023/10/20 06:30:44;;;;;;;3.35;2.05;;;;;;;;;;4957376;28;20051;-28
2023/10/20 06:33:18;;;;;;;3.95;1.90;;;19.20;62.50;;;;;;4957328;28;20058;-27
2023/10/20 06:35:56;;;;;;;2.28;1.80;;;19.50;80.20;;;;;;4956644;28;20493;-26
2023/10/20 06:38:30;;;;;;;2.38;1.80;;;19.50;80.60;;;;;;4937951;29;20056;-26
2023/10/20 06:40:57;;;;;;;2.97;1.87;;;18.90;80.10;;;;;;4937475;29;20064;-26
2023/10/20 06:43:25;;;;;;;5.25;2.05;;;19.40;61.00;;;;;;4937706;29;20103;-27
2023/10/20 06:45:57;;;;;;;4.30;2.00;;;19.00;61.50;;;;;;4954526;29;20122;-27
2023/10/20 06:48:24;;;;;;;2.40;1.80;;;19.10;79.90;;;;;;4956727;28;20425;-26
2023/10/20 06:50:51;;;;;;;2.50;1.70;;;19.20;80.90;;;;;;4956964;28;20057;-27
2023/10/20 06:53:18;;;;;;;3.47;1.70;;;;;;;;;;4956712;28;20047;-27
2023/10/20 06:55:45;;;;;;;2.80;1.70;;;19.00;80.70;;;;;;4956289;28;20047;-26
2023/10/20 06:58:12;;;;;;;2.80;1.88;;;;;;;;;;4956510;28;20051;-29
2023/10/20 07:00:40;;;;;;;4.53;1.83;;;19.20;60.60;;;;;;4956339;28;20051;-26
2023/10/20 07:03:07;;;;;;;3.78;1.88;;;18.40;80.00;;;;;;4956726;28;20408;-26
2023/10/20 07:05:37;;;;;;;5.00;2.00;;;;;;;;;;4956283;28;20405;-29
2023/10/20 07:08:05;;;;;;;3.15;1.63;;;19.10;60.50;;;;;;4956376;28;20147;-26
2023/10/20 07:10:33;;;;;;;2.30;1.52;;;18.70;79.70;;;;;;4956477;28;20551;-26
2023/10/20 07:13:01;;;;;;;2.25;1.75;;;;;;;;;;4955168;28;20102;-29
2023/10/20 07:15:28;;;;;;;2.97;1.98;;;19.40;80.00;;;;;;4931978;28;20046;-26
2023/10/20 07:17:56;;;;;;;3.22;1.95;;;18.40;63.60;;;;;;4928702;29;20051;-27
2023/10/20 07:20:23;;;;;;;2.85;1.60;;;18.90;65.60;;;;;;4930649;29;20075;-27
2023/10/20 07:22:49;;;;;;;2.70;1.92;;;19.60;80.60;;;;;;4937196;29;20466;-26
2023/10/20 07:25:16;;;;;;;2.65;1.70;;;18.80;79.40;;;;;;4936828;29;20458;-29
2023/10/20 07:27:43;;;;;;;2.42;1.60;;;18.90;79.30;;;;;;4936699;29;20048;-29
2023/10/20 07:30:11;;;;;;;2.05;1.50;;;19.20;79.90;;;;;;4936698;29;20055;-29
2023/10/20 07:32:38;;;;;;;2.42;1.58;;;18.80;62.20;;;;;;4935967;29;20056;-29
2023/10/20 07:35:08;;;;;;;2.58;1.50;;;19.10;60.40;;;;;;4936543;29;20511;-28
2023/10/20 07:37:35;;;;;;;2.65;1.70;;;;;;;;;;4936415;29;20062;-29
2023/10/20 07:40:04;;;;;;;2.47;1.38;;;18.90;79.40;;;;;;4936270;29;20052;-29
2023/10/20 07:42:32;;;;;;;2.08;1.40;;;;;;;;;;4936533;29;20138;-29
2023/10/20 07:45:00;;;;;;;1.90;1.50;;;18.60;79.30;;;;;;4946552;29;20043;-29
2023/10/20 07:47:26;;;;;;;2.20;1.52;;;19.00;80.30;;;;;;4955852;28;20058;-29
2023/10/20 07:49:57;;;;;;;1.63;1.30;;;;;;;;;;4955384;28;20055;-28
2023/10/20 07:52:25;;;;;;;3.00;1.63;;;19.40;60.50;;;;;;4954919;28;20051;-29
2023/10/20 07:54:52;;;;;;;1.85;1.30;;;19.50;79.50;;;;;;4935998;29;20079;-29
2023/10/20 07:57:20;;;;;;;2.15;1.40;;;19.60;79.80;;;;;;4936597;29;20051;-29
2023/10/20 07:59:47;;;;;;;2.53;1.38;;;19.70;80.30;;;;;;4936337;29;20055;-29
2023/10/20 08:02:14;;;;;;;2.05;1.20;;;;;;;;;;4936565;29;20074;-28
2023/10/20 08:04:41;;;;;;;2.03;1.48;;;19.30;79.90;;;;;;4936120;29;20079;-30
2023/10/20 08:07:09;;;;;;;1.98;1.42;;;20.10;70.70;;;;;;4936111;29;20078;-27
2023/10/20 08:09:37;;;;;;;1.95;1.30;;;19.80;60.40;;;;;;4935919;29;20067;-28
2023/10/20 08:12:04;;;;;;;2.67;1.27;;;;;;;;;;4936401;29;20074;-28
2023/10/20 08:14:33;;;;;;;2.85;1.40;;;19.60;79.00;;;;;;4936074;29;20059;-27
2023/10/20 08:17:03;;;;;;;1.80;1.20;;;;;;;;;;4935749;29;20074;-28
2023/10/20 08:19:31;;;;;;;3.17;1.30;;;;;;;;;;4935947;29;20047;-30
2023/10/20 08:21:59;;;;;;;3.13;1.33;;;20.20;79.90;;;;;;4935748;29;20079;-29
2023/10/20 08:24:25;;;;;;;2.92;1.30;;;21.10;79.60;;;;;;4935355;29;20131;-29
2023/10/20 08:26:53;;;;;;;2.47;1.10;;;20.10;60.20;;;;;;4935860;29;20040;-26
2023/10/20 08:29:21;;;;;;;2.83;1.27;;;;;;;;;;4935845;29;20197;-29
2023/10/20 08:31:47;;;;;;;2.17;1.20;;;20.20;79.20;;;;;;4929866;29;20052;-29
2023/10/20 08:34:14;;;;;;;2.00;1.25;;;21.00;79.40;;;;;;4918668;29;20083;-27
2023/10/20 08:36:41;;;;;;;1.95;1.20;;;20.10;69.10;;;;;;4922569;29;20520;-27
2023/10/20 08:39:13;;;;;;;2.05;1.20;;;20.30;78.50;;;;;;4935420;29;20059;-29
2023/10/20 08:41:41;;;;;;;1.10;1.00;;;20.10;78.60;;;;;;4935415;29;20048;-29
2023/10/20 08:44:10;;;;;;;1.45;1.15;;;21.60;79.20;;;;;;4933117;29;20051;-29
2023/10/20 08:46:37;;;;;;;1.73;1.20;;;20.50;79.10;;;;;;4954693;28;20043;-30
2023/10/20 08:49:05;;;;;;;2.05;1.00;;;20.50;78.50;;;;;;4954366;28;20051;-29
2023/10/20 08:51:32;;;;;;;4.45;1.30;;;;;;;;;;4954436;28;20059;-28
2023/10/20 08:53:58;;;;;;;1.98;1.30;;;20.90;79.60;;;;;;4948612;28;20074;-27
2023/10/20 08:56:26;;;;;;;1.30;1.08;;;;;;;;;;4932115;29;20039;-28
2023/10/20 08:58:53;;;;;;;1.52;1.10;;;20.50;78.20;;;;;;4934358;29;20056;-27
2023/10/20 09:01:21;;;;;;;1.52;1.10;;;20.20;75.70;;;;;;4932314;29;20048;-27
2023/10/20 09:03:49;;;;;;;1.98;1.20;;;20.60;76.70;;;;;;4933928;29;20047;-29
2023/10/20 09:06:16;;;;;;;1.77;1.20;;;;;;;;;;4934815;29;20126;-27
2023/10/20 09:08:43;;;;;;;1.58;1.00;;;20.50;78.60;;;;;;4934956;29;20076;-27
2023/10/20 09:11:10;;;;;;;0.93;0.82;;;21.00;67.30;;;;;;4934675;29;20051;-27
2023/10/20 09:13:39;;;;;;;1.77;1.10;;;20.40;74.30;;;;;;4934407;29;20086;-27
2023/10/20 09:16:08;;;;;;;2.97;1.30;;;20.80;59.70;;;;;;4931444;29;20489;-28
2023/10/20 09:18:47;;;;;;;1.20;1.00;;;20.70;77.90;;;;;;4934834;29;20071;-30
2023/10/20 09:21:14;;;;;;;1.42;1.10;;;19.90;77.40;;;;;;4932690;29;20042;-27
2023/10/20 09:23:41;;;;;;;1.08;0.90;;;21.30;78.40;;;;;;4934337;29;20118;-29
2023/10/20 09:26:08;;;;;;;1.27;1.00;;;20.90;77.90;;;;;;4931765;29;20109;-29
2023/10/20 09:28:36;;;;;;;1.30;1.00;;;;;;;;;;4934209;29;20084;-29
2023/10/20 09:31:03;;;;;;;1.13;1.00;;;;;;;;;;4934211;29;20067;-29
2023/10/20 09:33:30;;;;;;;0.98;0.80;;;20.60;78.00;;;;;;4932163;29;20052;-29
2023/10/20 09:35:58;;;;;;;1.48;1.05;;;21.00;59.50;;;;;;4933090;29;20040;-29
2023/10/20 09:38:26;;;;;;;1.60;1.00;;;21.00;59.40;;;;;;4934180;29;20056;-29
2023/10/20 09:40:57;;;;;;;1.98;1.20;;;21.00;69.10;;;;;;4934166;29;20420;-29
2023/10/20 09:43:28;;;;;;;1.50;0.98;;;21.10;77.60;;;;;;4934160;29;20104;-27
2023/10/20 09:46:02;;;;;;;1.23;0.95;;;21.50;64.60;;;;;;4934251;29;20087;-27
2023/10/20 09:48:28;;;;;;;1.27;0.90;;;20.90;78.20;;;;;;4931671;29;20143;-29
2023/10/20 09:50:56;;;;;;;1.75;1.00;;;;;;;;;;4934746;29;20047;-29
2023/10/20 09:53:24;;;;;;;1.60;0.90;;;21.20;77.40;;;;;;4930249;29;20391;-29
2023/10/20 09:55:51;;;;;;;1.50;0.90;;;21.10;77.20;;;;;;4930969;29;20072;-29
2023/10/20 09:58:25;;;;;;;1.00;0.90;;;21.20;77.20;;;;;;4933893;29;20079;-29
2023/10/20 10:00:52;;;;;;;1.23;1.13;;;21.10;77.00;;;;;;4932953;29;20099;-29
2023/10/20 10:03:28;;;;;;;1.00;0.90;;;21.30;59.00;;;;;;4933922;29;20082;-28
2023/10/20 10:05:55;;;;;;;0.88;0.82;;;20.90;77.40;;;;;;4933224;29;20734;-29
2023/10/20 10:08:24;;;;;;;1.13;0.98;;;21.20;76.90;;;;;;4932568;29;20051;-29
2023/10/20 10:10:51;;;;;;;1.60;1.00;;;21.80;77.40;;;;;;4933629;29;20043;-29
2023/10/20 10:13:19;;;;;;;1.27;0.95;;;;;;;;;;4933975;29;20047;-28
2023/10/20 10:15:47;;;;;;;4.45;0.90;;;21.60;77.20;;;;;;4934112;29;20052;-29
2023/10/20 10:18:17;;;;;;;1.35;1.00;;;21.30;58.90;;;;;;4934123;29;20083;-28
2023/10/20 10:20:48;;;;;;;0.98;0.90;;;21.00;66.10;;;;;;4934028;29;20139;-29
2023/10/20 10:23:15;;;;;;;1.85;1.00;;;21.00;77.30;;;;;;4934589;29;20080;-29
2023/10/20 10:25:44;;;;;;;1.15;0.90;;;21.20;58.80;;;;;;4934260;29;20404;-29
2023/10/20 10:28:12;;;;;;;0.80;0.80;;;22.20;77.50;;;;;;4934197;29;20047;-29
2023/10/20 10:30:39;;;;;;;2.13;0.85;;;21.30;77.40;;;;;;4926057;29;20051;-29
2023/10/20 10:33:08;;;;;;;1.02;0.80;;;21.10;58.90;;;;;;4924239;29;20136;-28
2023/10/20 10:35:35;;;;;;;2.80;1.05;;;20.70;69.70;;;;;;4927640;29;20082;-29
2023/10/20 10:38:03;;;;;;;1.77;1.00;;;20.90;77.40;;;;;;4933434;29;20112;-29
2023/10/20 10:40:30;;;;;;;1.52;1.05;;;21.40;78.20;;;;;;4931427;29;20075;-29
2023/10/20 10:42:58;;;;;;;1.92;0.93;;;21.00;59.20;;;;;;4933475;29;20087;-29
2023/10/20 10:45:27;;;;;;;1.55;0.93;;;21.00;59.20;;;;;;4942205;29;20082;-29
2023/10/20 10:48:04;;;;;;;2.28;0.80;;;21.00;59.20;;;;;;4956339;28;20513;-30
2023/10/20 10:50:32;;;;;;;1.20;0.90;;;21.20;61.20;;;;;;4934310;28;20110;-30
2023/10/20 10:52:59;;;;;;;2.25;0.93;;;;;;;;;;4937623;29;20470;-30
2023/10/20 10:55:26;;;;;;;2.25;0.80;;;20.80;78.30;;;;;;4937146;29;20055;-30
2023/10/20 10:57:53;;;;;;;1.05;0.80;;;;;;;;;;4935566;29;20055;-29
2023/10/20 11:00:22;;;;;;;1.30;1.10;;;20.60;77.40;;;;;;4936066;29;20433;-30
2023/10/20 11:02:49;;;;;;;3.90;1.02;;;20.30;77.60;;;;;;4937489;29;20051;-30
2023/10/20 11:05:16;;;;;;;2.33;0.80;;;;;;;;;;4937064;29;20115;-29
2023/10/20 11:07:55;;;;;;;2.33;0.80;;;20.80;59.40;;;;;;4937123;29;20421;-30
2023/10/20 11:10:24;;;;;;;2.75;0.95;;;20.10;59.10;;;;;;4930114;29;20079;-29
2023/10/20 11:12:51;;;;;;;1.30;0.90;;;;;;;;;;5301590;23;20090;-28
2023/10/20 11:15:17;;;;;;;3.85;1.00;;;19.70;58.80;;;;;;4969878;28;20414;-27
2023/10/20 11:17:46;;;;;;;2.20;1.00;;;20.70;67.20;;;;;;4975063;28;20183;-27
2023/10/20 11:20:13;;;;;;;0.85;0.77;;;20.80;78.10;;;;;;4975568;28;20047;-27
2023/10/20 11:22:40;;;;;;;0.93;0.80;;;;;;;;;;4957173;28;20055;-27
2023/10/20 11:25:10;;;;;;;1.27;0.73;;;21.70;70.80;;;;;;4955307;28;20055;-27
2023/10/20 11:27:46;;;;;;;1.95;0.77;;;20.50;77.80;;;;;;4956061;28;20064;-27
2023/10/20 11:30:13;;;;;;;1.17;0.80;;;20.40;78.10;;;;;;4954785;29;20496;-27
2023/10/20 11:32:41;;;;;;;0.95;0.85;;;20.30;73.80;;;;;;4955978;28;20082;-26
2023/10/20 11:35:09;;;;;;;1.08;0.90;;;20.40;59.60;;;;;;4955523;28;20059;-27
2023/10/20 11:37:36;;;;;;;1.02;0.75;;;;;;;;;;4955125;28;20082;-27
2023/10/20 11:40:04;;;;;;;1.00;0.80;;;20.20;78.20;;;;;;4955682;28;20095;-27
2023/10/20 11:42:32;;;;;;;2.10;0.82;;;;;;;;;;4955766;28;20142;-27
2023/10/20 11:45:00;;;;;;;1.08;0.85;;;;;;;;;;4955238;28;20130;-28
2023/10/20 11:47:27;;;;;;;3.35;0.85;;;21.00;78.50;;;;;;4955777;28;20051;-27
2023/10/20 11:49:54;;;;;;;7.78;1.10;;;20.90;79.30;;;;;;4955659;28;20087;-26
2023/10/20 11:52:24;;;;;;;3.33;1.20;;;20.00;78.80;;;;;;4955681;28;20504;-27
2023/10/20 11:54:51;;;;;;;1.85;0.98;;;;;;;;;;4955609;28;20063;-27
2023/10/20 11:57:18;;;;;;;1.67;0.80;;;20.30;78.50;;;;;;4955487;28;20047;-27
2023/10/20 11:59:45;;;;;;;1.15;0.90;;;;;;;;;;4954938;28;20065;-28
2023/10/20 12:02:12;;;;;;;2.63;1.15;;;20.10;64.00;;;;;;4954924;28;20102;-27
2023/10/20 12:04:39;;;;;;;2.35;1.00;;;;;;;;;;4955250;29;20055;-27
2023/10/20 12:07:06;;;;;;;2.72;0.90;;;19.70;78.00;;;;;;4954820;28;20047;-27
2023/10/20 12:09:34;;;;;;;2.25;0.80;;;20.10;59.60;;;;;;4951757;28;20129;-27
2023/10/20 12:12:00;;;;;;;0.70;0.70;;;19.50;78.80;;;;;;4954418;29;20047;-26
2023/10/20 12:14:28;;;;;;;2.92;0.85;;;;;;;;;;4953755;28;20043;-29
2023/10/20 12:16:55;;;;;;;0.85;0.85;;;;;;;;;;4954274;28;20407;-28
2023/10/20 12:19:22;;;;;;;1.13;0.90;;;;;;;;;;4952447;29;20051;-27
2023/10/20 12:21:49;;;;;;;0.98;0.70;;;;;;;;;;4954140;28;20449;-27
2023/10/20 12:24:16;;;;;;;1.65;0.90;;;20.20;72.40;;;;;;4954935;28;20051;-27
2023/10/20 12:26:44;;;;;;;1.20;0.73;;;19.90;79.30;;;;;;4954875;28;20047;-30
2023/10/20 12:29:12;;;;;;;1.05;0.80;;;18.80;78.20;;;;;;4955053;28;20098;-30
2023/10/20 12:31:39;;;;;;;1.15;0.70;;;20.30;78.60;;;;;;4954826;28;20479;-30
2023/10/20 12:34:06;;;;;;;2.58;0.70;;;19.20;63.80;;;;;;4954737;28;20086;-30
2023/10/20 12:36:35;;;;;;;0.95;0.80;;;;;;;;;;4954111;28;20142;-29
2023/10/20 12:39:06;;;;;;;1.27;1.00;;;;;;;;;;4953961;28;20058;-29
2023/10/20 12:41:33;;;;;;;0.90;0.90;;;;;;;;;;4953884;28;20062;-29
2023/10/20 12:44:02;;;;;;;0.90;0.80;;;18.40;59.00;;;;;;4953677;28;20544;-30
2023/10/20 12:46:28;;;;;;;1.05;0.65;;;19.60;66.40;;;;;;4952657;29;20077;-30
2023/10/20 12:48:55;;;;;;;1.23;0.90;;;19.50;67.90;;;;;;4953757;28;20055;-30
2023/10/20 12:51:22;;;;;;;1.20;0.80;;;;;;;;;;4952269;28;20421;-28
2023/10/20 12:53:49;;;;;;;1.15;0.90;;;19.10;79.10;;;;;;4952768;28;20102;-30
2023/10/20 12:56:16;;;;;;;0.63;0.63;;;19.40;78.40;;;;;;4953903;28;20102;-30
2023/10/20 12:58:43;;;;;;;1.65;0.75;;;20.00;78.70;;;;;;4954152;29;20079;-30
2023/10/20 13:01:11;;;;;;;0.80;0.80;;;19.90;79.70;;;;;;4954092;28;20114;-30
2023/10/20 13:03:38;;;;;;;1.15;1.00;;;19.10;78.80;;;;;;4954194;28;20050;-30
2023/10/20 13:06:06;;;;;;;2.05;0.80;;;;;;;;;;4954045;28;20078;-28
2023/10/20 13:08:33;;;;;;;1.17;0.90;;;19.10;61.60;;;;;;4954396;28;20054;-30
2023/10/20 13:11:00;;;;;;;1.48;0.90;;;19.70;79.70;;;;;;4953122;28;20106;-30
2023/10/20 13:13:28;;;;;;;1.17;0.95;;;19.30;78.70;;;;;;4953732;28;20688;-30
2023/10/20 13:15:55;;;;;;;6.32;0.93;;;;;;;;;;4953704;28;20087;-30
2023/10/20 13:18:24;;;;;;;0.90;0.80;;;19.40;60.10;;;;;;4954037;28;20051;-30
2023/10/20 13:20:51;;;;;;;1.02;0.77;;;18.70;78.50;;;;;;4953755;28;20051;-30
2023/10/20 13:23:17;;;;;;;1.20;0.70;;;19.00;63.50;;;;;;4952281;28;20082;-29
2023/10/20 13:25:44;;;;;;;1.23;0.88;;;20.30;79.10;;;;;;4949573;29;20051;-30
2023/10/20 13:28:11;;;;;;;1.08;0.80;;;19.60;78.90;;;;;;4953771;28;20051;-30
2023/10/20 13:30:38;;;;;;;1.98;1.00;;;19.00;64.40;;;;;;4953271;28;20551;-29